sensor_id;sensor_type;location;lat;lon;timestamp;pressure;altitude;pressure_sealevel;temperature;humidity
24486;BME280;13449;49.374;8.584;2023-04-20T00:01:46;100681.81;;;6.11;100.00
24486;BME280;13449;49.374;8.584;2023-04-20T00:04:14;100685.00;;;6.05;100.00
24486;BME280;13449;49.374;8.584;2023-04-20T00:06:41;100674.66;;;6.03;100.00
24486;BME280;13449;49.374;8.584;2023-04-20T00:09:10;100668.06;;;6.09;100.00
24486;BME280;13449;49.374;8.584;2023-04-20T00:11:40;100666.97;;;5.92;100.00
24486;BME280;13449;49.374;8.584;2023-04-20T00:14:09;100660.06;;;5.91;100.00
24486;BME280;13449;49.374;8.584;2023-04-20T00:16:35;100654.84;;;6.01;100.00
24486;BME280;13449;49.374;8.584;2023-04-20T00:19:02;100655.41;;;5.85;100.00
24486;BME280;13449;49.374;8.584;2023-04-20T00:21:29;100652.94;;;5.93;100.00
24486;BME280;13449;49.374;8.584;2023-04-20T00:23:58;100655.25;;;6.06;100.00
24486;BME280;13449;49.374;8.584;2023-04-20T00:26:24;100642.75;;;6.00;100.00
24486;BME280;13449;49.374;8.584;2023-04-20T00:28:51;100655.28;;;5.96;100.00
24486;BME280;13449;49.374;8.584;2023-04-20T00:31:18;100646.72;;;5.84;100.00
24486;BME280;13449;49.374;8.584;2023-04-20T00:33:48;100639.19;;;5.72;100.00
24486;BME280;13449;49.374;8.584;2023-04-20T00:36:14;100636.91;;;5.49;100.00
24486;BME280;13449;49.374;8.584;2023-04-20T00:38:43;100638.94;;;5.36;100.00
24486;BME280;13449;49.374;8.584;2023-04-20T00:41:10;100625.31;;;5.23;100.00
24486;BME280;13449;49.374;8.584;2023-04-20T00:43:47;100627.81;;;5.05;100.00
24486;BME280;13449;49.374;8.584;2023-04-20T00:46:14;100624.63;;;5.01;100.00
24486;BME280;13449;49.374;8.584;2023-04-20T00:48:42;100619.94;;;4.95;100.00
24486;BME280;13449;49.374;8.584;2023-04-20T00:51:08;100619.25;;;4.83;100.00
24486;BME280;13449;49.374;8.584;2023-04-20T00:53:35;100620.03;;;4.74;100.00
24486;BME280;13449;49.374;8.584;2023-04-20T00:56:02;100606.69;;;4.67;100.00
24486;BME280;13449;49.374;8.584;2023-04-20T00:58:28;100611.66;;;4.71;100.00
24486;BME280;13449;49.374;8.584;2023-04-20T01:00:55;100604.25;;;4.76;100.00
24486;BME280;13449;49.374;8.584;2023-04-20T01:03:22;100613.06;;;4.75;100.00
24486;BME280;13449;49.374;8.584;2023-04-20T01:05:48;100603.16;;;4.78;100.00
24486;BME280;13449;49.374;8.584;2023-04-20T01:08:15;100597.97;;;4.88;100.00
24486;BME280;13449;49.374;8.584;2023-04-20T01:10:42;100592.31;;;4.92;100.00
24486;BME280;13449;49.374;8.584;2023-04-20T01:13:08;100597.97;;;5.07;100.00
24486;BME280;13449;49.374;8.584;2023-04-20T01:15:34;100592.59;;;5.09;100.00
24486;BME280;13449;49.374;8.584;2023-04-20T01:18:04;100579.81;;;5.15;100.00
24486;BME280;13449;49.374;8.584;2023-04-20T01:20:31;100583.69;;;5.21;100.00
24486;BME280;13449;49.374;8.584;2023-04-20T01:23:00;100582.97;;;5.19;100.00
24486;BME280;13449;49.374;8.584;2023-04-20T01:25:29;100572.97;;;5.24;100.00
24486;BME280;13449;49.374;8.584;2023-04-20T01:27:55;100570.06;;;5.18;100.00
24486;BME280;13449;49.374;8.584;2023-04-20T01:30:24;100568.97;;;5.20;100.00
24486;BME280;13449;49.374;8.584;2023-04-20T01:32:50;100566.50;;;5.09;100.00
24486;BME280;13449;49.374;8.584;2023-04-20T01:35:17;100564.31;;;5.14;100.00
24486;BME280;13449;49.374;8.584;2023-04-20T01:37:44;100557.16;;;5.06;100.00
24486;BME280;13449;49.374;8.584;2023-04-20T01:40:11;100551.53;;;4.91;100.00
24486;BME280;13449;49.374;8.584;2023-04-20T01:42:38;100563.59;;;4.83;100.00
24486;BME280;13449;49.374;8.584;2023-04-20T01:45:06;100555.34;;;4.87;100.00
24486;BME280;13449;49.374;8.584;2023-04-20T01:47:33;100547.94;;;4.92;100.00
24486;BME280;13449;49.374;8.584;2023-04-20T01:50:02;100541.75;;;4.93;100.00
24486;BME280;13449;49.374;8.584;2023-04-20T01:52:29;100546.31;;;5.01;100.00
24486;BME280;13449;49.374;8.584;2023-04-20T01:54:55;100536.41;;;4.95;100.00
24486;BME280;13449;49.374;8.584;2023-04-20T01:57:22;100536.41;;;4.95;100.00
24486;BME280;13449;49.374;8.584;2023-04-20T01:59:48;100529.13;;;4.99;100.00
24486;BME280;13449;49.374;8.584;2023-04-20T02:02:15;100524.72;;;4.99;100.00
24486;BME280;13449;49.374;8.584;2023-04-20T02:04:41;100526.63;;;4.87;100.00
24486;BME280;13449;49.374;8.584;2023-04-20T02:07:08;100529.25;;;4.97;100.00
24486;BME280;13449;49.374;8.584;2023-04-20T02:09:34;100532.56;;;4.89;100.00
24486;BME280;13449;49.374;8.584;2023-04-20T02:12:01;100531.59;;;4.90;100.00
24486;BME280;13449;49.374;8.584;2023-04-20T02:14:28;100532.81;;;4.86;100.00
24486;BME280;13449;49.374;8.584;2023-04-20T02:16:54;100536.94;;;4.89;100.00
24486;BME280;13449;49.374;8.584;2023-04-20T02:19:21;100525.81;;;4.97;100.00
24486;BME280;13449;49.374;8.584;2023-04-20T02:21:47;100517.59;;;5.01;100.00
24486;BME280;13449;49.374;8.584;2023-04-20T02:24:14;100523.34;;;5.05;100.00
24486;BME280;13449;49.374;8.584;2023-04-20T02:26:43;100521.13;;;5.10;100.00
24486;BME280;13449;49.374;8.584;2023-04-20T02:29:10;100514.81;;;5.12;100.00
24486;BME280;13449;49.374;8.584;2023-04-20T02:31:36;100511.53;;;5.10;100.00
24486;BME280;13449;49.374;8.584;2023-04-20T02:34:03;100512.47;;;5.19;100.00
24486;BME280;13449;49.374;8.584;2023-04-20T02:36:31;100508.06;;;5.20;100.00
24486;BME280;13449;49.374;8.584;2023-04-20T02:38:57;100512.31;;;5.30;100.00
24486;BME280;13449;49.374;8.584;2023-04-20T02:41:24;100512.31;;;5.30;100.00
24486;BME280;13449;49.374;8.584;2023-04-20T02:43:50;100510.25;;;5.34;100.00
24486;BME280;13449;49.374;8.584;2023-04-20T02:46:17;100502.69;;;5.41;100.00
24486;BME280;13449;49.374;8.584;2023-04-20T02:48:46;100505.66;;;5.46;100.00
24486;BME280;13449;49.374;8.584;2023-04-20T02:51:12;100501.97;;;5.48;100.00
24486;BME280;13449;49.374;8.584;2023-04-20T02:53:39;100500.88;;;5.41;100.00
24486;BME280;13449;49.374;8.584;2023-04-20T02:56:06;100488.25;;;5.36;100.00
24486;BME280;13449;49.374;8.584;2023-04-20T02:58:32;100494.56;;;5.44;100.00
24486;BME280;13449;49.374;8.584;2023-04-20T03:00:59;100489.63;;;5.41;100.00
24486;BME280;13449;49.374;8.584;2023-04-20T03:03:27;100487.28;;;5.37;100.00
24486;BME280;13449;49.374;8.584;2023-04-20T03:05:56;100481.66;;;5.23;100.00
24486;BME280;13449;49.374;8.584;2023-04-20T03:08:23;100481.84;;;5.11;100.00
24486;BME280;13449;49.374;8.584;2023-04-20T03:10:49;100491.56;;;5.19;100.00
24486;BME280;13449;49.374;8.584;2023-04-20T03:13:16;100481.28;;;5.08;100.00
24486;BME280;13449;49.374;8.584;2023-04-20T03:15:43;100476.06;;;5.18;100.00
24486;BME280;13449;49.374;8.584;2023-04-20T03:18:11;100474.53;;;5.15;100.00
24486;BME280;13449;49.374;8.584;2023-04-20T03:20:38;100476.06;;;5.08;100.00
24486;BME280;13449;49.374;8.584;2023-04-20T03:23:08;100466.03;;;5.03;100.00
24486;BME280;13449;49.374;8.584;2023-04-20T03:25:35;100465.47;;;5.00;100.00
24486;BME280;13449;49.374;8.584;2023-04-20T03:28:04;100462.88;;;5.00;100.00
24486;BME280;13449;49.374;8.584;2023-04-20T03:30:31;100466.56;;;5.07;100.00
24486;BME280;13449;49.374;8.584;2023-04-20T03:32:57;100461.06;;;5.10;100.00
24486;BME280;13449;49.374;8.584;2023-04-20T03:35:24;100462.59;;;5.12;100.00
24486;BME280;13449;49.374;8.584;2023-04-20T03:37:50;100458.31;;;5.21;100.00
24486;BME280;13449;49.374;8.584;2023-04-20T03:40:22;100460.22;;;5.29;100.00
24486;BME280;13449;49.374;8.584;2023-04-20T03:42:53;100462.41;;;5.33;100.00
24486;BME280;13449;49.374;8.584;2023-04-20T03:45:19;100461.56;;;5.33;100.00
24486;BME280;13449;49.374;8.584;2023-04-20T03:47:46;100451.56;;;5.28;100.00
24486;BME280;13449;49.374;8.584;2023-04-20T03:50:12;100453.19;;;5.29;100.00
24486;BME280;13449;49.374;8.584;2023-04-20T03:52:39;100454.72;;;5.22;100.00
24486;BME280;13449;49.374;8.584;2023-04-20T03:55:08;100454.06;;;5.20;100.00
24486;BME280;13449;49.374;8.584;2023-04-20T03:57:34;100451.28;;;5.22;100.00
24486;BME280;13449;49.374;8.584;2023-04-20T04:00:01;100458.06;;;5.14;100.00
24486;BME280;13449;49.374;8.584;2023-04-20T04:02:32;100451.06;;;4.96;100.00
24486;BME280;13449;49.374;8.584;2023-04-20T04:05:02;100453.84;;;4.94;100.00
24486;BME280;13449;49.374;8.584;2023-04-20T04:07:29;100457.94;;;4.87;100.00
24486;BME280;13449;49.374;8.584;2023-04-20T04:09:55;100451.91;;;4.86;100.00
24486;BME280;13449;49.374;8.584;2023-04-20T04:12:21;100453.97;;;4.83;100.00
24486;BME280;13449;49.374;8.584;2023-04-20T04:14:48;100449.31;;;4.77;100.00
24486;BME280;13449;49.374;8.584;2023-04-20T04:17:14;100449.56;;;4.74;100.00
24486;BME280;13449;49.374;8.584;2023-04-20T04:19:41;100450.00;;;4.69;100.00
24486;BME280;13449;49.374;8.584;2023-04-20T04:22:08;100439.03;;;4.65;100.00
24486;BME280;13449;49.374;8.584;2023-04-20T04:24:35;100446.41;;;4.70;100.00
24486;BME280;13449;49.374;8.584;2023-04-20T04:27:03;100448.34;;;4.78;100.00
24486;BME280;13449;49.374;8.584;2023-04-20T04:29:33;100445.75;;;4.68;100.00
24486;BME280;13449;49.374;8.584;2023-04-20T04:32:04;100441.63;;;4.75;100.00
24486;BME280;13449;49.374;8.584;2023-04-20T04:34:30;100439.56;;;4.79;100.00
24486;BME280;13449;49.374;8.584;2023-04-20T04:37:01;100435.97;;;4.70;100.00
24486;BME280;13449;49.374;8.584;2023-04-20T04:39:28;100445.44;;;4.81;100.00
24486;BME280;13449;49.374;8.584;2023-04-20T04:41:57;100443.69;;;4.72;100.00
24486;BME280;13449;49.374;8.584;2023-04-20T04:44:23;100449.03;;;4.70;100.00
24486;BME280;13449;49.374;8.584;2023-04-20T04:46:51;100440.94;;;4.73;100.00
24486;BME280;13449;49.374;8.584;2023-04-20T04:49:21;100449.03;;;4.80;100.00
24486;BME280;13449;49.374;8.584;2023-04-20T04:51:52;100440.91;;;4.83;100.00
24486;BME280;13449;49.374;8.584;2023-04-20T04:54:20;100428.41;;;4.86;100.00
24486;BME280;13449;49.374;8.584;2023-04-20T04:56:47;100435.28;;;4.87;100.00
24486;BME280;13449;49.374;8.584;2023-04-20T04:59:13;100432.53;;;4.89;100.00
24486;BME280;13449;49.374;8.584;2023-04-20T05:01:40;100426.47;;;4.98;100.00
24486;BME280;13449;49.374;8.584;2023-04-20T05:04:06;100426.75;;;5.05;100.00
24486;BME280;13449;49.374;8.584;2023-04-20T05:06:33;100427.81;;;5.12;100.00
24486;BME280;13449;49.374;8.584;2023-04-20T05:09:00;100431.09;;;5.24;100.00
24486;BME280;13449;49.374;8.584;2023-04-20T05:11:27;100432.56;;;5.26;100.00
24486;BME280;13449;49.374;8.584;2023-04-20T05:13:53;100441.78;;;5.30;100.00
24486;BME280;13449;49.374;8.584;2023-04-20T05:16:20;100442.84;;;5.47;100.00
24486;BME280;13449;49.374;8.584;2023-04-20T05:18:46;100442.06;;;5.37;100.00
24486;BME280;13449;49.374;8.584;2023-04-20T05:21:15;100449.97;;;5.45;100.00
24486;BME280;13449;49.374;8.584;2023-04-20T05:23:42;100445.84;;;5.43;100.00
24486;BME280;13449;49.374;8.584;2023-04-20T05:26:10;100445.56;;;5.46;100.00
24486;BME280;13449;49.374;8.584;2023-04-20T05:28:37;100446.84;;;5.42;100.00
24486;BME280;13449;49.374;8.584;2023-04-20T05:31:04;100445.81;;;5.52;100.00
24486;BME280;13449;49.374;8.584;2023-04-20T05:33:30;100442.22;;;5.63;100.00
24486;BME280;13449;49.374;8.584;2023-04-20T05:35:57;100448.31;;;5.54;100.00
24486;BME280;13449;49.374;8.584;2023-04-20T05:38:23;100454.03;;;5.67;100.00
24486;BME280;13449;49.374;8.584;2023-04-20T05:40:51;100452.69;;;5.63;100.00
24486;BME280;13449;49.374;8.584;2023-04-20T05:43:17;100461.25;;;5.83;100.00
24486;BME280;13449;49.374;8.584;2023-04-20T05:45:45;100464.56;;;5.85;100.00
24486;BME280;13449;49.374;8.584;2023-04-20T05:48:12;100465.06;;;5.98;100.00
24486;BME280;13449;49.374;8.584;2023-04-20T05:50:38;100456.44;;;6.16;100.00
24486;BME280;13449;49.374;8.584;2023-04-20T05:53:07;100458.25;;;6.51;100.00
24486;BME280;13449;49.374;8.584;2023-04-20T05:55:33;100455.63;;;6.87;100.00
24486;BME280;13449;49.374;8.584;2023-04-20T05:58:00;100450.91;;;7.16;100.00
24486;BME280;13449;49.374;8.584;2023-04-20T06:00:29;100460.72;;;7.40;100.00
24486;BME280;13449;49.374;8.584;2023-04-20T06:02:56;100450.56;;;7.71;100.00
24486;BME280;13449;49.374;8.584;2023-04-20T06:05:22;100450.16;;;7.58;100.00
24486;BME280;13449;49.374;8.584;2023-04-20T06:07:51;100450.13;;;7.92;100.00
24486;BME280;13449;49.374;8.584;2023-04-20T06:10:21;100454.00;;;8.31;100.00
24486;BME280;13449;49.374;8.584;2023-04-20T06:12:47;100449.97;;;8.53;100.00
24486;BME280;13449;49.374;8.584;2023-04-20T06:15:13;100446.06;;;7.90;100.00
24486;BME280;13449;49.374;8.584;2023-04-20T06:17:40;100447.72;;;8.07;100.00
24486;BME280;13449;49.374;8.584;2023-04-20T06:20:08;100442.94;;;8.45;100.00
24486;BME280;13449;49.374;8.584;2023-04-20T06:22:36;100443.44;;;8.65;100.00
24486;BME280;13449;49.374;8.584;2023-04-20T06:25:07;100441.59;;;9.15;100.00
24486;BME280;13449;49.374;8.584;2023-04-20T06:27:35;100441.44;;;9.64;100.00
24486;BME280;13449;49.374;8.584;2023-04-20T06:30:02;100438.88;;;9.87;100.00
24486;BME280;13449;49.374;8.584;2023-04-20T06:32:29;100448.38;;;9.56;100.00
24486;BME280;13449;49.374;8.584;2023-04-20T06:34:55;100442.59;;;10.00;100.00
24486;BME280;13449;49.374;8.584;2023-04-20T06:37:22;100447.16;;;9.28;100.00
24486;BME280;13449;49.374;8.584;2023-04-20T06:39:54;100446.34;;;9.03;100.00
24486;BME280;13449;49.374;8.584;2023-04-20T06:42:23;100453.19;;;9.45;100.00
24486;BME280;13449;49.374;8.584;2023-04-20T06:44:49;100448.81;;;9.68;100.00
24486;BME280;13449;49.374;8.584;2023-04-20T06:47:16;100448.53;;;9.63;100.00
24486;BME280;13449;49.374;8.584;2023-04-20T06:49:45;100446.66;;;9.80;100.00
24486;BME280;13449;49.374;8.584;2023-04-20T06:52:11;100453.31;;;9.99;100.00
24486;BME280;13449;49.374;8.584;2023-04-20T06:54:38;100448.78;;;9.37;100.00
24486;BME280;13449;49.374;8.584;2023-04-20T06:57:06;100443.72;;;10.83;100.00
24486;BME280;13449;49.374;8.584;2023-04-20T06:59:33;100447.53;;;9.64;100.00
24486;BME280;13449;49.374;8.584;2023-04-20T07:02:02;100442.34;;;9.87;100.00
24486;BME280;13449;49.374;8.584;2023-04-20T07:04:28;100421.75;;;10.53;100.00
24486;BME280;13449;49.374;8.584;2023-04-20T07:06:55;100434.03;;;10.61;100.00
24486;BME280;13449;49.374;8.584;2023-04-20T07:09:21;100435.63;;;10.85;100.00
24486;BME280;13449;49.374;8.584;2023-04-20T07:11:50;100425.06;;;11.22;95.25
24486;BME280;13449;49.374;8.584;2023-04-20T07:14:17;100421.72;;;10.30;100.00
24486;BME280;13449;49.374;8.584;2023-04-20T07:16:45;100415.25;;;10.41;95.48
24486;BME280;13449;49.374;8.584;2023-04-20T07:19:12;100421.25;;;10.26;100.00
24486;BME280;13449;49.374;8.584;2023-04-20T07:21:41;100416.47;;;10.76;97.57
24486;BME280;13449;49.374;8.584;2023-04-20T07:24:08;100416.06;;;11.32;95.41
24486;BME280;13449;49.374;8.584;2023-04-20T07:26:34;100407.88;;;11.27;95.52
24486;BME280;13449;49.374;8.584;2023-04-20T07:29:03;100414.13;;;11.11;100.00
24486;BME280;13449;49.374;8.584;2023-04-20T07:31:32;100413.00;;;11.28;100.00
24486;BME280;13449;49.374;8.584;2023-04-20T07:34:03;100416.78;;;11.55;94.69
24486;BME280;13449;49.374;8.584;2023-04-20T07:36:29;100414.88;;;11.49;89.92
24486;BME280;13449;49.374;8.584;2023-04-20T07:38:56;100415.50;;;11.81;99.14
24486;BME280;13449;49.374;8.584;2023-04-20T07:41:22;100411.44;;;11.19;83.94
24486;BME280;13449;49.374;8.584;2023-04-20T07:43:49;100414.78;;;10.60;89.35
24486;BME280;13449;49.374;8.584;2023-04-20T07:46:21;100409.88;;;11.54;96.52
24486;BME280;13449;49.374;8.584;2023-04-20T07:48:49;100409.06;;;11.54;100.00
24486;BME280;13449;49.374;8.584;2023-04-20T07:51:15;100409.06;;;11.39;94.75
24486;BME280;13449;49.374;8.584;2023-04-20T07:53:42;100412.41;;;10.65;93.99
24486;BME280;13449;49.374;8.584;2023-04-20T07:56:09;100407.16;;;11.33;97.30
24486;BME280;13449;49.374;8.584;2023-04-20T07:58:35;100408.09;;;10.49;87.97
24486;BME280;13449;49.374;8.584;2023-04-20T08:01:04;100405.69;;;11.30;100.00
24486;BME280;13449;49.374;8.584;2023-04-20T08:03:31;100401.75;;;10.96;81.90
24486;BME280;13449;49.374;8.584;2023-04-20T08:06:01;100400.88;;;11.19;86.61
24486;BME280;13449;49.374;8.584;2023-04-20T08:08:27;100399.66;;;11.66;94.75
24486;BME280;13449;49.374;8.584;2023-04-20T08:10:56;100397.31;;;10.82;94.17
24486;BME280;13449;49.374;8.584;2023-04-20T08:13:23;100391.38;;;10.80;87.81
24486;BME280;13449;49.374;8.584;2023-04-20T08:15:52;100396.66;;;10.95;97.21
24486;BME280;13449;49.374;8.584;2023-04-20T08:18:19;100388.53;;;10.67;94.87
24486;BME280;13449;49.374;8.584;2023-04-20T08:20:46;100387.97;;;10.57;97.59
24486;BME280;13449;49.374;8.584;2023-04-20T08:23:13;100390.25;;;11.12;100.00
24486;BME280;13449;49.374;8.584;2023-04-20T08:25:39;100390.59;;;11.09;90.40
24486;BME280;13449;49.374;8.584;2023-04-20T08:28:06;100384.16;;;11.41;100.00
24486;BME280;13449;49.374;8.584;2023-04-20T08:30:40;100380.31;;;10.99;100.00
24486;BME280;13449;49.374;8.584;2023-04-20T08:33:07;100380.50;;;11.42;97.96
24486;BME280;13449;49.374;8.584;2023-04-20T08:35:35;100382.78;;;11.45;97.41
24486;BME280;13449;49.374;8.584;2023-04-20T08:38:04;100381.59;;;11.33;96.75
24486;BME280;13449;49.374;8.584;2023-04-20T08:40:31;100380.06;;;11.09;92.62
24486;BME280;13449;49.374;8.584;2023-04-20T08:42:57;100375.59;;;11.39;97.27
24486;BME280;13449;49.374;8.584;2023-04-20T08:45:27;100369.31;;;11.55;89.32
24486;BME280;13449;49.374;8.584;2023-04-20T08:47:56;100376.47;;;11.61;88.61
24486;BME280;13449;49.374;8.584;2023-04-20T08:50:23;100372.03;;;11.17;96.97
24486;BME280;13449;49.374;8.584;2023-04-20T08:52:50;100371.44;;;11.96;86.91
24486;BME280;13449;49.374;8.584;2023-04-20T08:55:17;100366.16;;;13.23;93.91
24486;BME280;13449;49.374;8.584;2023-04-20T08:57:44;100373.34;;;12.73;68.63
24486;BME280;13449;49.374;8.584;2023-04-20T09:00:10;100356.91;;;13.47;70.67
24486;BME280;13449;49.374;8.584;2023-04-20T09:02:52;100363.31;;;13.25;74.29
24486;BME280;13449;49.374;8.584;2023-04-20T09:05:27;100362.19;;;13.13;71.33
24486;BME280;13449;49.374;8.584;2023-04-20T09:07:56;100353.53;;;12.91;69.13
24486;BME280;13449;49.374;8.584;2023-04-20T09:10:25;100349.56;;;14.04;75.64
24486;BME280;13449;49.374;8.584;2023-04-20T09:12:52;100348.69;;;12.94;72.06
24486;BME280;13449;49.374;8.584;2023-04-20T09:15:28;100348.25;;;12.13;72.47
24486;BME280;13449;49.374;8.584;2023-04-20T09:17:55;100346.84;;;12.38;66.41
24486;BME280;13449;49.374;8.584;2023-04-20T09:20:32;100341.88;;;12.78;70.44
24486;BME280;13449;49.374;8.584;2023-04-20T09:25:37;100345.78;;;12.89;68.88
24486;BME280;13449;49.374;8.584;2023-04-20T09:28:06;100339.38;;;13.40;73.25
24486;BME280;13449;49.374;8.584;2023-04-20T09:30:39;100335.97;;;13.11;75.67
24486;BME280;13449;49.374;8.584;2023-04-20T09:33:06;100336.00;;;12.83;67.82
24486;BME280;13449;49.374;8.584;2023-04-20T09:35:33;100341.47;;;12.81;69.29
24486;BME280;13449;49.374;8.584;2023-04-20T09:38:00;100330.09;;;12.81;64.04
24486;BME280;13449;49.374;8.584;2023-04-20T09:40:29;100325.94;;;13.41;71.05
24486;BME280;13449;49.374;8.584;2023-04-20T09:43:02;100337.22;;;13.56;70.51
24486;BME280;13449;49.374;8.584;2023-04-20T09:45:30;100331.75;;;12.89;72.17
24486;BME280;13449;49.374;8.584;2023-04-20T09:47:59;100324.25;;;12.92;78.04
24486;BME280;13449;49.374;8.584;2023-04-20T09:50:26;100323.44;;;12.63;82.48
24486;BME280;13449;49.374;8.584;2023-04-20T09:53:12;100324.34;;;12.71;73.93
24486;BME280;13449;49.374;8.584;2023-04-20T09:55:41;100330.41;;;12.65;73.69
24486;BME280;13449;49.374;8.584;2023-04-20T09:58:08;100328.69;;;12.57;66.58
24486;BME280;13449;49.374;8.584;2023-04-20T10:00:34;100315.06;;;13.77;65.06
24486;BME280;13449;49.374;8.584;2023-04-20T10:03:01;100315.19;;;13.08;58.96
24486;BME280;13449;49.374;8.584;2023-04-20T10:05:33;100317.06;;;13.14;60.61
24486;BME280;13449;49.374;8.584;2023-04-20T10:08:00;100305.84;;;13.12;59.64
24486;BME280;13449;49.374;8.584;2023-04-20T10:10:27;100312.78;;;12.78;72.21
24486;BME280;13449;49.374;8.584;2023-04-20T10:12:56;100309.44;;;13.26;70.46
24486;BME280;13449;49.374;8.584;2023-04-20T10:15:35;100314.19;;;12.46;66.91
24486;BME280;13449;49.374;8.584;2023-04-20T10:18:02;100310.44;;;12.62;69.01
24486;BME280;13449;49.374;8.584;2023-04-20T10:20:31;100301.22;;;12.86;69.26
24486;BME280;13449;49.374;8.584;2023-04-20T10:23:08;100295.78;;;12.88;66.78
24486;BME280;13449;49.374;8.584;2023-04-20T10:25:36;100291.28;;;13.23;64.13
24486;BME280;13449;49.374;8.584;2023-04-20T10:28:04;100285.91;;;13.57;61.03
24486;BME280;13449;49.374;8.584;2023-04-20T10:30:48;100282.19;;;13.45;65.87
24486;BME280;13449;49.374;8.584;2023-04-20T10:33:15;100282.31;;;13.78;59.58
24486;BME280;13449;49.374;8.584;2023-04-20T10:38:11;100274.53;;;13.70;55.27
24486;BME280;13449;49.374;8.584;2023-04-20T10:40:41;100276.50;;;13.42;60.99
24486;BME280;13449;49.374;8.584;2023-04-20T10:43:17;100277.28;;;13.36;59.38
24486;BME280;13449;49.374;8.584;2023-04-20T10:45:44;100267.94;;;13.40;56.80
24486;BME280;13449;49.374;8.584;2023-04-20T10:48:11;100264.66;;;13.31;64.11
24486;BME280;13449;49.374;8.584;2023-04-20T10:50:40;100271.44;;;13.05;60.61
24486;BME280;13449;49.374;8.584;2023-04-20T10:53:20;100274.88;;;13.41;62.85
24486;BME280;13449;49.374;8.584;2023-04-20T10:55:57;100256.31;;;13.34;62.09
24486;BME280;13449;49.374;8.584;2023-04-20T10:58:24;100253.69;;;12.93;58.49
24486;BME280;13449;49.374;8.584;2023-04-20T11:01:03;100254.25;;;12.81;59.67
24486;BME280;13449;49.374;8.584;2023-04-20T11:03:31;100261.63;;;12.93;61.93
24486;BME280;13449;49.374;8.584;2023-04-20T11:06:01;100241.88;;;13.37;63.84
24486;BME280;13449;49.374;8.584;2023-04-20T11:08:40;100254.81;;;13.18;63.58
24486;BME280;13449;49.374;8.584;2023-04-20T11:11:19;100247.00;;;12.97;61.89
24486;BME280;13449;49.374;8.584;2023-04-20T11:13:47;100242.44;;;12.77;65.06
24486;BME280;13449;49.374;8.584;2023-04-20T11:16:15;100251.38;;;12.76;69.55
24486;BME280;13449;49.374;8.584;2023-04-20T11:19:00;100253.53;;;12.66;81.40
24486;BME280;13449;49.374;8.584;2023-04-20T11:24:03;100271.50;;;11.78;75.54
24486;BME280;13449;49.374;8.584;2023-04-20T11:26:37;100251.63;;;11.39;72.08
24486;BME280;13449;49.374;8.584;2023-04-20T11:29:05;100252.13;;;11.50;93.66
24486;BME280;13449;49.374;8.584;2023-04-20T11:31:34;100257.03;;;11.31;96.98
24486;BME280;13449;49.374;8.584;2023-04-20T11:34:02;100244.97;;;11.43;92.97
24486;BME280;13449;49.374;8.584;2023-04-20T11:36:37;100238.97;;;11.92;77.56
24486;BME280;13449;49.374;8.584;2023-04-20T11:39:07;100240.50;;;12.30;83.85
24486;BME280;13449;49.374;8.584;2023-04-20T11:41:38;100238.66;;;12.58;82.37
24486;BME280;13449;49.374;8.584;2023-04-20T11:44:05;100229.19;;;12.71;73.60
24486;BME280;13449;49.374;8.584;2023-04-20T11:46:33;100228.25;;;12.92;70.05
24486;BME280;13449;49.374;8.584;2023-04-20T11:49:01;100218.16;;;13.83;79.08
24486;BME280;13449;49.374;8.584;2023-04-20T11:51:27;100224.47;;;13.95;68.24
24486;BME280;13449;49.374;8.584;2023-04-20T11:53:56;100208.56;;;13.82;66.51
24486;BME280;13449;49.374;8.584;2023-04-20T11:56:23;100225.28;;;13.96;60.98
24486;BME280;13449;49.374;8.584;2023-04-20T11:58:49;100220.56;;;14.31;57.09
24486;BME280;13449;49.374;8.584;2023-04-20T12:01:18;100223.78;;;13.40;62.83
24486;BME280;13449;49.374;8.584;2023-04-20T12:03:47;100260.09;;;12.42;89.59
24486;BME280;13449;49.374;8.584;2023-04-20T12:06:13;100244.09;;;11.79;100.00
24486;BME280;13449;49.374;8.584;2023-04-20T12:08:40;100259.41;;;11.26;100.00
24486;BME280;13449;49.374;8.584;2023-04-20T12:11:08;100268.16;;;11.12;100.00
24486;BME280;13449;49.374;8.584;2023-04-20T12:13:34;100273.03;;;10.56;100.00
24486;BME280;13449;49.374;8.584;2023-04-20T12:16:01;100277.56;;;10.32;100.00
24486;BME280;13449;49.374;8.584;2023-04-20T12:18:28;100273.75;;;10.35;100.00
24486;BME280;13449;49.374;8.584;2023-04-20T12:20:57;100267.59;;;10.42;100.00
24486;BME280;13449;49.374;8.584;2023-04-20T12:23:25;100265.84;;;10.35;100.00
24486;BME280;13449;49.374;8.584;2023-04-20T12:25:52;100262.78;;;10.75;100.00
24486;BME280;13449;49.374;8.584;2023-04-20T12:28:18;100262.72;;;10.84;100.00
24486;BME280;13449;49.374;8.584;2023-04-20T12:30:45;100257.28;;;11.36;100.00
24486;BME280;13449;49.374;8.584;2023-04-20T12:33:11;100260.84;;;11.29;100.00
24486;BME280;13449;49.374;8.584;2023-04-20T12:35:38;100243.13;;;11.22;100.00
24486;BME280;13449;49.374;8.584;2023-04-20T12:38:04;100246.44;;;11.67;100.00
24486;BME280;13449;49.374;8.584;2023-04-20T12:40:31;100253.03;;;11.93;100.00
24486;BME280;13449;49.374;8.584;2023-04-20T12:43:00;100250.81;;;11.97;100.00
24486;BME280;13449;49.374;8.584;2023-04-20T12:45:26;100247.47;;;12.09;100.00
24486;BME280;13449;49.374;8.584;2023-04-20T12:47:53;100249.84;;;12.04;100.00
24486;BME280;13449;49.374;8.584;2023-04-20T12:50:23;100241.88;;;11.98;100.00
24486;BME280;13449;49.374;8.584;2023-04-20T12:52:50;100229.13;;;12.01;100.00
24486;BME280;13449;49.374;8.584;2023-04-20T12:55:24;100235.56;;;12.20;100.00
24486;BME280;13449;49.374;8.584;2023-04-20T12:57:51;100240.84;;;12.20;100.00
24486;BME280;13449;49.374;8.584;2023-04-20T13:00:20;100240.56;;;12.36;100.00